createdAt,value
2018-08-13T00:01:00.443Z,16.60
2018-08-13T00:03:28.606Z,16.80
2018-08-13T00:05:56.780Z,16.90
2018-08-13T00:08:24.931Z,17.00
2018-08-13T00:10:53.115Z,17.10
2018-08-13T00:13:21.276Z,17.10
2018-08-13T00:15:49.513Z,17.10
2018-08-13T00:18:17.689Z,17.20
2018-08-13T00:20:45.858Z,17.20
2018-08-13T00:23:14.030Z,17.10
2018-08-13T00:25:42.190Z,17.10
2018-08-13T00:28:10.729Z,17.10
2018-08-13T00:30:39.258Z,17.00
2018-08-13T00:33:08.363Z,17.00
2018-08-13T00:35:36.630Z,17.00
2018-08-13T00:38:04.803Z,17.00
2018-08-13T00:40:32.968Z,16.90
2018-08-13T00:43:01.169Z,16.90
2018-08-13T00:45:29.355Z,16.90
2018-08-13T00:47:57.518Z,16.90
2018-08-13T00:50:25.712Z,16.90
2018-08-13T00:52:53.910Z,16.90
2018-08-13T00:55:22.082Z,16.80
2018-08-13T00:57:50.277Z,16.80
2018-08-13T01:00:19.614Z,16.90
2018-08-13T01:02:48.190Z,16.90
2018-08-13T01:05:17.362Z,16.90
2018-08-13T01:07:45.522Z,16.90
2018-08-13T01:10:16.102Z,16.90
2018-08-13T01:12:44.413Z,16.80
2018-08-13T01:15:14.447Z,16.60
2018-08-13T01:17:43.913Z,16.50
2018-08-13T01:20:14.348Z,16.30
2018-08-13T01:22:42.569Z,16.30
2018-08-13T01:25:12.716Z,16.30
2018-08-13T01:27:41.350Z,16.30
2018-08-13T01:30:10.862Z,16.40
2018-08-13T01:32:39.029Z,16.40
2018-08-13T01:35:07.516Z,16.50
2018-08-13T01:37:35.661Z,16.50
2018-08-13T01:40:05.401Z,16.60
2018-08-13T01:42:33.561Z,16.60
2018-08-13T01:45:01.715Z,16.60
2018-08-13T01:47:29.901Z,16.50
2018-08-13T01:49:58.059Z,16.50
2018-08-13T01:52:26.205Z,16.60
2018-08-13T01:54:54.350Z,16.50
2018-08-13T01:57:22.570Z,16.50
2018-08-13T01:59:50.754Z,16.50
2018-08-13T02:02:18.905Z,16.60
2018-08-13T02:04:47.054Z,16.60
2018-08-13T02:07:15.193Z,16.70
2018-08-13T02:09:43.343Z,16.70
2018-08-13T02:12:11.839Z,16.70
2018-08-13T02:14:39.981Z,16.70
2018-08-13T02:17:08.124Z,16.70
2018-08-13T02:19:36.265Z,16.70
2018-08-13T02:22:04.555Z,16.50
2018-08-13T02:24:32.700Z,16.40
2018-08-13T02:27:00.866Z,16.40
2018-08-13T02:29:28.992Z,16.20
2018-08-13T02:31:57.300Z,15.80
2018-08-13T02:34:25.511Z,15.50
2018-08-13T02:36:53.654Z,15.50
2018-08-13T02:39:22.059Z,15.50
2018-08-13T02:41:50.211Z,15.60
2018-08-13T02:44:18.364Z,15.70
2018-08-13T02:46:46.559Z,15.80
2018-08-13T02:49:14.714Z,15.90
2018-08-13T02:51:42.854Z,16.00
2018-08-13T02:54:11.005Z,16.00
2018-08-13T02:56:39.132Z,16.10
2018-08-13T02:59:07.269Z,16.10
2018-08-13T03:01:35.422Z,16.10
2018-08-13T03:04:03.598Z,16.00
2018-08-13T03:06:31.720Z,15.90
2018-08-13T03:08:59.866Z,15.80
2018-08-13T03:11:28.034Z,15.80
2018-08-13T03:13:56.211Z,15.70
2018-08-13T03:16:24.702Z,15.70
2018-08-13T03:18:53.010Z,15.70
2018-08-13T03:21:21.186Z,15.70
2018-08-13T03:23:49.316Z,15.70
2018-08-13T03:26:17.486Z,15.70
2018-08-13T03:28:45.646Z,15.70
2018-08-13T03:31:13.764Z,15.70
2018-08-13T03:33:41.930Z,15.70
2018-08-13T03:36:10.074Z,15.70
2018-08-13T03:38:38.234Z,15.70
2018-08-13T03:41:06.370Z,15.70
2018-08-13T03:43:34.522Z,15.60
2018-08-13T03:46:02.673Z,15.50
2018-08-13T03:48:30.849Z,15.50
2018-08-13T03:50:59.001Z,15.50
2018-08-13T03:53:27.202Z,15.60
2018-08-13T03:55:55.365Z,15.70
2018-08-13T03:58:23.574Z,15.80
2018-08-13T04:00:51.738Z,15.80
2018-08-13T04:03:19.906Z,15.80
2018-08-13T04:05:48.126Z,15.90
2018-08-13T04:08:16.257Z,15.90
2018-08-13T04:10:44.421Z,16.00
2018-08-13T04:13:12.573Z,15.90
2018-08-13T04:15:40.714Z,15.90
2018-08-13T04:18:09.333Z,15.90
2018-08-13T04:20:37.498Z,16.00
2018-08-13T04:23:05.674Z,16.00
2018-08-13T04:25:33.810Z,15.90
2018-08-13T04:28:01.959Z,15.80
2018-08-13T04:30:30.173Z,15.70
2018-08-13T04:32:58.328Z,15.60
2018-08-13T04:35:26.499Z,15.40
2018-08-13T04:37:54.655Z,15.40
2018-08-13T04:40:22.837Z,15.40
2018-08-13T04:42:51.016Z,15.40
2018-08-13T04:45:19.183Z,15.50
2018-08-13T04:47:50.853Z,15.50
2018-08-13T04:50:19.182Z,15.60
2018-08-13T04:52:47.612Z,15.60
2018-08-13T04:55:15.802Z,15.60
2018-08-13T04:57:44.114Z,15.60
2018-08-13T05:00:12.417Z,15.60
2018-08-13T05:02:40.566Z,15.60
2018-08-13T05:05:10.120Z,15.70
2018-08-13T05:07:38.496Z,15.70
2018-08-13T05:10:08.142Z,15.80
2018-08-13T05:12:36.294Z,15.90
2018-08-13T05:15:05.574Z,16.00
2018-08-13T05:17:33.744Z,16.20
2018-08-13T05:20:01.922Z,16.40
2018-08-13T05:22:30.051Z,16.60
2018-08-13T05:24:58.194Z,16.70
2018-08-13T05:27:26.384Z,16.90
2018-08-13T05:29:54.533Z,17.00
2018-08-13T05:32:22.753Z,17.20
2018-08-13T05:34:50.913Z,17.20
2018-08-13T05:37:19.062Z,17.40
2018-08-13T05:39:47.226Z,17.50
2018-08-13T05:42:15.381Z,17.60
2018-08-13T05:44:43.533Z,17.70
2018-08-13T05:47:11.747Z,17.80
2018-08-13T05:49:39.881Z,17.90
2018-08-13T05:52:08.058Z,17.90
2018-08-13T05:54:36.231Z,17.90
2018-08-13T05:57:04.438Z,18.00
2018-08-13T05:59:32.581Z,18.00
2018-08-13T06:02:00.750Z,18.10
2018-08-13T06:04:28.904Z,18.20
2018-08-13T06:06:57.062Z,18.30
2018-08-13T06:09:25.205Z,18.40
2018-08-13T06:11:53.364Z,18.60
2018-08-13T06:14:21.500Z,18.70
2018-08-13T06:16:49.701Z,18.80
2018-08-13T06:19:17.861Z,19.00
2018-08-13T06:21:46.015Z,19.10
2018-08-13T06:24:14.181Z,19.20
2018-08-13T06:26:42.349Z,19.40
2018-08-13T06:29:10.494Z,19.60
2018-08-13T06:31:38.670Z,19.70
2018-08-13T06:34:06.909Z,19.80
2018-08-13T06:36:35.083Z,20.10
2018-08-13T06:39:04.028Z,20.30
2018-08-13T06:41:32.201Z,20.50
2018-08-13T06:44:00.357Z,20.80
2018-08-13T06:46:28.549Z,21.00
2018-08-13T06:48:56.718Z,21.20
2018-08-13T06:51:24.863Z,21.30
2018-08-13T06:53:53.029Z,21.40
2018-08-13T06:56:21.161Z,21.50
2018-08-13T06:58:49.320Z,21.50
2018-08-13T07:01:17.461Z,21.50
2018-08-13T07:03:45.667Z,21.50
2018-08-13T07:06:13.874Z,21.50
2018-08-13T07:08:42.021Z,21.60
2018-08-13T07:11:10.178Z,21.60
2018-08-13T07:13:38.379Z,21.70
2018-08-13T07:16:06.592Z,21.70
2018-08-13T07:18:34.733Z,21.80
2018-08-13T07:21:02.873Z,21.80
2018-08-13T07:23:31.067Z,21.80
2018-08-13T07:25:59.209Z,21.90
2018-08-13T07:28:27.386Z,21.90
2018-08-13T07:30:55.545Z,21.90
2018-08-13T07:33:23.762Z,21.90
2018-08-13T07:35:51.886Z,21.90
2018-08-13T07:38:20.064Z,21.90
2018-08-13T07:40:48.306Z,21.80
2018-08-13T07:43:16.490Z,21.80
2018-08-13T07:45:44.799Z,21.80
2018-08-13T07:48:12.904Z,21.70
2018-08-13T07:50:41.166Z,21.70
2018-08-13T07:53:09.438Z,21.60
2018-08-13T07:55:37.590Z,21.60
2018-08-13T07:58:05.737Z,21.50
2018-08-13T08:00:33.898Z,21.50
2018-08-13T08:03:02.062Z,21.30
2018-08-13T08:05:30.211Z,21.20
2018-08-13T08:07:58.362Z,21.00
2018-08-13T08:10:26.534Z,20.90
2018-08-13T08:12:54.707Z,20.80
2018-08-13T08:15:22.921Z,20.70
2018-08-13T08:17:51.065Z,20.60
2018-08-13T08:20:19.210Z,20.50
2018-08-13T08:22:47.377Z,20.50
2018-08-13T08:25:17.824Z,20.50
2018-08-13T08:27:46.013Z,20.60
2018-08-13T08:30:14.564Z,20.70
2018-08-13T08:32:42.941Z,20.70
2018-08-13T08:35:13.469Z,20.80
2018-08-13T08:37:41.738Z,20.80
2018-08-13T08:40:12.889Z,20.90
2018-08-13T08:42:41.126Z,21.00
2018-08-13T08:45:13.745Z,21.10
2018-08-13T08:47:42.383Z,21.20
2018-08-13T08:50:10.658Z,21.20
2018-08-13T08:52:38.842Z,21.20
2018-08-13T08:55:07.318Z,21.20
2018-08-13T08:57:35.574Z,21.20
2018-08-13T09:00:03.968Z,21.30
2018-08-13T09:02:32.126Z,21.40
2018-08-13T09:05:00.363Z,21.50
2018-08-13T09:07:28.514Z,21.70
2018-08-13T09:09:56.696Z,21.60
2018-08-13T09:12:25.206Z,21.60
2018-08-13T09:14:53.411Z,21.70
2018-08-13T09:17:21.662Z,21.70
2018-08-13T09:20:01.078Z,21.70
2018-08-13T09:23:44.549Z,21.70
2018-08-13T09:26:24.210Z,21.70
2018-08-13T09:29:03.755Z,21.70
2018-08-13T09:31:56.666Z,21.70
2018-08-13T09:34:32.766Z,21.60
2018-08-13T09:37:00.983Z,21.60
2018-08-13T09:39:29.129Z,21.60
2018-08-13T09:41:57.291Z,21.60
2018-08-13T09:44:25.472Z,21.70
2018-08-13T09:46:53.614Z,21.70
2018-08-13T09:49:21.758Z,21.80
2018-08-13T09:51:49.922Z,21.90
2018-08-13T09:54:18.080Z,21.90
2018-08-13T09:56:46.238Z,21.90
2018-08-13T09:59:14.380Z,22.00
2018-08-13T10:01:42.590Z,22.00
2018-08-13T10:04:10.726Z,22.00
2018-08-13T10:06:38.878Z,22.00
2018-08-13T10:09:07.705Z,22.00
2018-08-13T10:11:35.878Z,22.10
2018-08-13T10:14:04.090Z,22.10
2018-08-13T10:16:32.249Z,22.10
2018-08-13T10:19:00.421Z,22.10
2018-08-13T10:21:28.557Z,22.00
2018-08-13T10:23:56.726Z,22.10
2018-08-13T10:26:24.886Z,22.00
2018-08-13T10:28:53.025Z,22.00
2018-08-13T10:31:21.213Z,21.90
2018-08-13T10:33:49.417Z,21.90
2018-08-13T10:36:17.584Z,21.80
2018-08-13T10:38:45.745Z,21.80
2018-08-13T10:41:13.917Z,21.90
2018-08-13T10:43:42.143Z,21.80
2018-08-13T10:46:10.300Z,21.80
2018-08-13T10:48:38.439Z,21.80
2018-08-13T10:51:06.618Z,21.70
2018-08-13T10:53:34.779Z,21.60
2018-08-13T10:56:03.040Z,21.60
2018-08-13T10:58:31.242Z,21.60
2018-08-13T11:00:59.409Z,21.50
2018-08-13T11:03:27.572Z,21.40
2018-08-13T11:05:55.820Z,21.40
2018-08-13T11:08:23.964Z,21.40
2018-08-13T11:10:52.157Z,21.40
2018-08-13T11:13:20.321Z,21.40
2018-08-13T11:15:48.843Z,21.40
2018-08-13T11:18:17.032Z,21.30
2018-08-13T11:20:45.236Z,21.20
2018-08-13T11:23:13.431Z,21.10
2018-08-13T11:25:41.620Z,21.10
2018-08-13T11:28:09.777Z,21.10
2018-08-13T11:30:37.929Z,21.00
2018-08-13T11:33:06.142Z,21.00
2018-08-13T11:35:34.303Z,21.00
2018-08-13T11:38:02.454Z,21.00
2018-08-13T11:40:30.645Z,21.00
2018-08-13T11:42:58.760Z,19.20
2018-08-13T11:45:26.912Z,20.90
2018-08-13T11:47:55.162Z,20.80
2018-08-13T11:50:23.339Z,20.80
2018-08-13T11:52:51.909Z,20.80
2018-08-13T11:55:20.500Z,20.80
2018-08-13T11:57:49.688Z,20.70
2018-08-13T12:00:17.885Z,20.70
2018-08-13T12:02:46.184Z,20.80
2018-08-13T12:05:15.329Z,20.90
2018-08-13T12:07:44.007Z,20.90
2018-08-13T12:10:12.805Z,21.00
2018-08-13T12:12:41.721Z,21.10
2018-08-13T12:15:10.971Z,21.20
2018-08-13T12:17:39.389Z,21.40
2018-08-13T12:20:15.500Z,21.50
2018-08-13T12:22:44.233Z,21.60
2018-08-13T12:25:30.942Z,21.60
2018-08-13T12:27:59.129Z,21.60
2018-08-13T12:30:27.306Z,21.60
2018-08-13T12:32:55.872Z,21.70
2018-08-13T12:35:24.030Z,21.70
2018-08-13T12:37:52.415Z,21.70
2018-08-13T12:40:20.707Z,21.60
2018-08-13T12:42:48.874Z,21.50
2018-08-13T12:45:17.894Z,21.40
2018-08-13T12:47:46.069Z,21.30
2018-08-13T12:50:15.548Z,21.30
2018-08-13T12:52:44.845Z,21.20
2018-08-13T12:55:13.349Z,21.30
2018-08-13T12:57:41.532Z,21.50
2018-08-13T13:00:12.577Z,21.70
2018-08-13T13:02:41.153Z,21.90
2018-08-13T13:05:10.737Z,22.10
2018-08-13T13:07:38.923Z,22.20
2018-08-13T13:10:09.524Z,22.30
2018-08-13T13:12:37.770Z,22.50
2018-08-13T13:15:07.677Z,22.60
2018-08-13T13:17:36.314Z,22.70
2018-08-13T13:20:05.916Z,22.80
2018-08-13T13:22:34.125Z,22.80
2018-08-13T13:25:02.379Z,22.90
2018-08-13T13:27:30.605Z,23.00
2018-08-13T13:29:58.765Z,23.10
2018-08-13T13:32:26.909Z,23.20
2018-08-13T13:34:55.067Z,23.30
2018-08-13T13:37:23.225Z,23.40
2018-08-13T13:39:51.369Z,23.50
2018-08-13T13:42:19.526Z,23.40
2018-08-13T13:44:47.677Z,23.50
2018-08-13T13:47:15.820Z,23.50
2018-08-13T13:49:43.966Z,23.50
2018-08-13T13:52:12.113Z,23.50
2018-08-13T13:54:40.278Z,23.40
2018-08-13T13:57:08.566Z,23.30
2018-08-13T13:59:36.705Z,23.20
2018-08-13T14:02:05.145Z,23.20
2018-08-13T14:04:33.303Z,23.20
2018-08-13T14:07:01.493Z,23.30
2018-08-13T14:09:29.705Z,23.50
2018-08-13T14:11:57.874Z,23.60
2018-08-13T14:14:26.010Z,23.60
2018-08-13T14:16:54.157Z,23.60
2018-08-13T14:19:22.316Z,23.70
2018-08-13T14:21:50.470Z,23.80
2018-08-13T14:24:18.601Z,23.90
2018-08-13T14:26:46.762Z,24.10
2018-08-13T14:29:14.917Z,23.70
2018-08-13T14:31:43.152Z,23.50
2018-08-13T14:34:11.303Z,23.40
2018-08-13T14:36:39.458Z,23.50
2018-08-13T14:39:09.829Z,23.40
2018-08-13T14:41:38.061Z,23.20
2018-08-13T14:44:06.348Z,23.00
2018-08-13T14:46:34.795Z,22.80
2018-08-13T14:49:02.950Z,22.90
2018-08-13T14:51:31.253Z,22.90
2018-08-13T14:53:59.381Z,22.80
2018-08-13T14:56:27.541Z,22.90
2018-08-13T14:58:55.700Z,22.80
2018-08-13T15:01:23.883Z,22.70
2018-08-13T15:03:52.037Z,22.70
2018-08-13T15:06:20.206Z,22.60
2018-08-13T15:08:48.625Z,22.50
2018-08-13T15:11:16.757Z,22.70
2018-08-13T15:13:44.922Z,22.80
2018-08-13T15:16:13.115Z,22.90
2018-08-13T15:18:41.264Z,23.00
2018-08-13T15:21:09.418Z,23.20
2018-08-13T15:23:37.581Z,23.20
2018-08-13T15:26:05.944Z,23.30
2018-08-13T15:28:34.085Z,23.30
2018-08-13T15:31:02.264Z,23.30
2018-08-13T15:33:30.555Z,23.30
2018-08-13T15:35:58.604Z,23.20
2018-08-13T15:38:26.805Z,23.20
2018-08-13T15:40:54.962Z,23.10
2018-08-13T15:43:23.253Z,22.90
2018-08-13T15:45:51.470Z,22.80
2018-08-13T15:48:19.619Z,22.70
2018-08-13T15:50:47.778Z,22.70
2018-08-13T15:53:15.938Z,22.60
2018-08-13T15:55:44.237Z,22.60
2018-08-13T15:58:12.275Z,22.40
2018-08-13T16:00:40.450Z,22.10
2018-08-13T16:03:08.618Z,21.80
2018-08-13T16:05:36.798Z,21.40
2018-08-13T16:08:05.016Z,21.00
2018-08-13T16:10:33.149Z,20.60
2018-08-13T16:13:01.334Z,20.30
2018-08-13T16:15:29.510Z,20.10
2018-08-13T16:17:57.683Z,19.90
2018-08-13T16:20:25.837Z,19.80
2018-08-13T16:22:54.022Z,19.70
2018-08-13T16:25:22.181Z,19.70
2018-08-13T16:27:50.368Z,19.70
2018-08-13T16:30:22.117Z,19.70
2018-08-13T16:32:50.437Z,19.80
2018-08-13T16:35:19.323Z,19.90
2018-08-13T16:37:47.685Z,19.90
2018-08-13T16:40:16.686Z,20.10
2018-08-13T16:42:44.861Z,20.20
2018-08-13T16:45:14.062Z,20.40
2018-08-13T16:47:42.256Z,20.50
2018-08-13T16:50:14.357Z,20.60
2018-08-13T16:52:42.535Z,20.70
2018-08-13T16:55:11.365Z,20.90
2018-08-13T16:57:39.769Z,21.20
2018-08-13T17:00:09.654Z,21.20
2018-08-13T17:02:38.196Z,21.30
2018-08-13T17:05:08.223Z,21.40
2018-08-13T17:07:36.464Z,21.40
2018-08-13T17:10:06.065Z,21.30
2018-08-13T17:12:34.235Z,21.30
2018-08-13T17:15:02.429Z,21.30
2018-08-13T17:17:30.587Z,21.30
2018-08-13T17:19:58.757Z,21.20
2018-08-13T17:22:26.985Z,21.10
2018-08-13T17:24:55.162Z,21.00
2018-08-13T17:27:23.347Z,20.90
2018-08-13T17:29:51.499Z,20.80
2018-08-13T17:32:19.682Z,20.80
2018-08-13T17:34:47.896Z,20.70
2018-08-13T17:37:16.059Z,20.70
2018-08-13T17:39:44.206Z,20.70
2018-08-13T17:42:12.474Z,20.70
2018-08-13T17:44:40.686Z,20.60
2018-08-13T17:47:08.910Z,20.50
2018-08-13T17:49:37.088Z,20.50
2018-08-13T17:52:05.229Z,20.50
2018-08-13T17:54:33.377Z,20.60
2018-08-13T17:57:01.513Z,20.60
2018-08-13T17:59:29.673Z,20.70
2018-08-13T18:01:57.920Z,20.70
2018-08-13T18:04:26.050Z,20.70
2018-08-13T18:06:54.229Z,20.70
2018-08-13T18:09:22.370Z,20.60
2018-08-13T18:11:50.547Z,20.60
2018-08-13T18:14:18.730Z,20.50
2018-08-13T18:16:46.983Z,20.50
2018-08-13T18:19:15.142Z,20.40
2018-08-13T18:21:43.340Z,20.40
2018-08-13T18:24:11.484Z,20.40
2018-08-13T18:26:39.672Z,20.30
2018-08-13T18:29:08.202Z,20.20
2018-08-13T18:31:36.344Z,20.10
2018-08-13T18:34:04.486Z,20.00
2018-08-13T18:36:32.630Z,19.90
2018-08-13T18:39:01.031Z,19.90
2018-08-13T18:41:29.177Z,19.80
2018-08-13T18:43:57.322Z,19.70
2018-08-13T18:46:25.480Z,19.60
2018-08-13T18:48:53.834Z,19.60
2018-08-13T18:51:21.977Z,19.60
2018-08-13T18:53:50.146Z,19.70
2018-08-13T18:56:18.306Z,19.60
2018-08-13T18:58:46.455Z,19.60
2018-08-13T19:01:14.642Z,19.60
2018-08-13T19:03:42.766Z,19.60
2018-08-13T19:06:10.921Z,19.60
2018-08-13T19:08:39.134Z,19.60
2018-08-13T19:11:07.287Z,19.60
2018-08-13T19:13:35.438Z,19.60
2018-08-13T19:16:03.585Z,19.60
2018-08-13T19:18:32.054Z,19.50
2018-08-13T19:23:41.285Z,19.50
2018-08-13T19:26:09.485Z,19.50
2018-08-13T19:28:37.739Z,19.50
2018-08-13T19:31:05.989Z,19.50
2018-08-13T19:33:34.158Z,17.90
2018-08-13T19:36:02.422Z,19.50
2018-08-13T19:38:30.649Z,19.40
2018-08-13T19:40:58.835Z,19.30
2018-08-13T19:43:26.978Z,19.30
2018-08-13T19:45:55.220Z,19.30
2018-08-13T19:48:23.366Z,19.20
2018-08-13T19:50:51.517Z,19.20
2018-08-13T19:53:19.708Z,19.10
2018-08-13T19:55:47.862Z,19.00
2018-08-13T19:58:16.293Z,19.00
2018-08-13T20:00:44.454Z,19.00
2018-08-13T20:03:13.701Z,18.90
2018-08-13T20:05:42.141Z,18.90
2018-08-13T20:08:10.481Z,18.80
2018-08-13T20:10:38.639Z,18.70
2018-08-13T20:13:07.012Z,18.70
2018-08-13T20:15:35.202Z,18.70
2018-08-13T20:18:03.394Z,18.70
2018-08-13T20:20:31.578Z,18.60
2018-08-13T20:22:59.729Z,18.50
2018-08-13T20:25:27.938Z,18.40
2018-08-13T20:27:56.190Z,18.30
2018-08-13T20:30:24.274Z,18.30
2018-08-13T20:32:53.307Z,18.30
2018-08-13T20:35:21.557Z,18.30
2018-08-13T20:37:49.726Z,18.30
2018-08-13T20:40:19.044Z,18.40
2018-08-13T20:42:47.742Z,18.40
2018-08-13T20:45:17.669Z,18.30
2018-08-13T20:47:46.349Z,18.30
2018-08-13T20:50:16.247Z,18.30
2018-08-13T20:52:45.077Z,18.30
2018-08-13T20:55:16.090Z,18.30
2018-08-13T20:57:45.192Z,18.30
2018-08-13T21:00:14.365Z,18.30
2018-08-13T21:02:43.577Z,18.30
2018-08-13T21:05:11.806Z,18.30
2018-08-13T21:07:39.981Z,18.20
2018-08-13T21:10:11.339Z,18.30
2018-08-13T21:12:39.606Z,18.20
2018-08-13T21:15:09.457Z,18.20
2018-08-13T21:17:37.922Z,18.30
2018-08-13T21:20:06.409Z,18.30
2018-08-13T21:22:35.210Z,18.30
2018-08-13T21:25:03.866Z,18.40
2018-08-13T21:27:32.031Z,18.40
2018-08-13T21:30:00.187Z,18.40
2018-08-13T21:32:28.353Z,18.40
2018-08-13T21:34:56.482Z,18.40
2018-08-13T21:37:24.695Z,18.30
2018-08-13T21:39:52.804Z,18.30
2018-08-13T21:42:20.973Z,18.20
2018-08-13T21:44:49.118Z,18.20
2018-08-13T21:47:17.310Z,18.10
2018-08-13T21:49:45.478Z,18.00
2018-08-13T21:52:13.638Z,18.00
2018-08-13T21:54:41.814Z,18.00
2018-08-13T21:57:09.986Z,17.90
2018-08-13T21:59:38.119Z,17.90
2018-08-13T22:02:12.011Z,17.90
2018-08-13T22:04:41.730Z,17.90
2018-08-13T22:07:09.991Z,17.80
2018-08-13T22:09:38.250Z,17.70
2018-08-13T22:12:10.862Z,17.70
2018-08-13T22:14:39.086Z,17.70
2018-08-13T22:17:07.218Z,17.70
2018-08-13T22:19:35.369Z,17.60
2018-08-13T22:22:03.561Z,17.60
2018-08-13T22:24:43.413Z,17.60
2018-08-13T22:27:11.567Z,17.60
2018-08-13T22:29:39.727Z,17.50
2018-08-13T22:32:07.930Z,17.40
2018-08-13T22:34:36.099Z,17.30
2018-08-13T22:37:04.287Z,17.20
2018-08-13T22:39:32.459Z,17.10
2018-08-13T22:42:00.612Z,17.10
2018-08-13T22:44:28.776Z,17.10
2018-08-13T22:46:56.938Z,17.10
2018-08-13T22:49:25.097Z,17.10
2018-08-13T22:51:53.267Z,17.10
2018-08-13T22:54:21.442Z,17.10
2018-08-13T22:56:49.611Z,17.00
2018-08-13T22:59:17.750Z,17.00
2018-08-13T23:01:45.909Z,17.00
2018-08-13T23:04:14.066Z,17.00
2018-08-13T23:06:42.223Z,17.10
2018-08-13T23:09:11.613Z,17.10
2018-08-13T23:11:39.786Z,17.10
2018-08-13T23:14:07.973Z,17.00
2018-08-13T23:16:36.165Z,17.00
2018-08-13T23:19:04.342Z,16.90
2018-08-13T23:21:32.494Z,16.90
2018-08-13T23:24:00.619Z,16.90
2018-08-13T23:26:28.790Z,17.00
2018-08-13T23:28:56.946Z,17.00
2018-08-13T23:31:25.087Z,17.00
2018-08-13T23:33:53.221Z,17.00
2018-08-13T23:36:21.374Z,17.00
2018-08-13T23:38:49.753Z,17.00
2018-08-13T23:41:17.906Z,17.10
2018-08-13T23:43:46.078Z,17.10
2018-08-13T23:46:14.237Z,17.10
2018-08-13T23:48:42.393Z,17.10
2018-08-13T23:51:10.541Z,17.10
2018-08-13T23:53:38.719Z,17.10
2018-08-13T23:56:07.097Z,17.10
2018-08-13T23:58:35.230Z,17.00
